Time;durP1;ratioP1;P1;durP2;ratioP2;P2;SDS_P1;SDS_P2;PMS_P1;PMS_P2;Temp;Humidity;BMP_temperature;BMP_pressure;BME280_temperature;BME280_humidity;BME280_pressure;Samples;Min_cycle;Max_cycle;Signal;HPM_P1;HPM_P2
2023/01/06 00:01:51;;;;;;;18.08;3.15;;;9.60;99.90;;;;;;5002237;28;20045;-88
2023/01/06 00:04:17;;;;;;;16.63;3.35;;;9.60;99.90;;;;;;4997886;28;20045;-88
2023/01/06 00:06:48;;;;;;;20.75;3.25;;;9.50;99.90;;;;;;4999337;28;20057;-89
2023/01/06 00:09:14;;;;;;;13.75;2.92;;;9.60;99.90;;;;;;4996860;28;20038;-90
2023/01/06 00:11:43;;;;;;;9.32;2.45;;;9.50;99.90;;;;;;4983607;28;20056;-88
2023/01/06 00:14:11;;;;;;;16.05;2.55;;;9.50;99.90;;;;;;4988026;28;20496;-88
2023/01/06 00:16:37;;;;;;;13.77;2.45;;;9.40;99.90;;;;;;5013527;28;20042;-90
2023/01/06 00:19:08;;;;;;;17.08;2.45;;;9.50;99.90;;;;;;4990763;28;20048;-90
2023/01/06 00:21:38;;;;;;;15.40;2.90;;;9.50;99.90;;;;;;4995907;28;20495;-89
2023/01/06 00:24:13;;;;;;;13.77;2.60;;;9.40;99.90;;;;;;4988424;28;20042;-89
2023/01/06 00:26:42;;;;;;;13.98;2.53;;;9.40;99.90;;;;;;4995950;28;20069;-88
2023/01/06 00:29:09;;;;;;;15.68;2.80;;;9.50;99.90;;;;;;5009800;28;20081;-89
2023/01/06 00:31:38;;;;;;;10.18;2.20;;;9.50;99.90;;;;;;5014526;28;20065;-88
2023/01/06 00:34:08;;;;;;;12.98;2.40;;;9.90;99.90;;;;;;4991823;28;20072;-89
2023/01/06 00:36:34;;;;;;;12.02;2.83;;;9.50;99.90;;;;;;4974329;28;20056;-88
2023/01/06 00:39:00;;;;;;;13.38;2.80;;;9.40;99.90;;;;;;5002756;28;20041;-88
2023/01/06 00:44:13;;;;;;;16.13;2.97;;;9.60;99.90;;;;;;5007192;28;20505;-89
2023/01/06 00:46:39;;;;;;;15.05;3.08;;;9.60;99.90;;;;;;5009965;28;20115;-90
2023/01/06 00:49:08;;;;;;;17.58;2.67;;;9.50;99.90;;;;;;4988413;28;20045;-89
2023/01/06 00:51:36;;;;;;;12.95;2.67;;;9.50;99.90;;;;;;4991598;28;20101;-89
2023/01/06 00:54:02;;;;;;;11.63;2.75;;;9.50;99.90;;;;;;4991372;28;20050;-88
2023/01/06 00:56:31;;;;;;;16.58;3.00;;;9.50;99.90;;;;;;5005931;28;20086;-89
2023/01/06 00:59:00;;;;;;;16.25;2.85;;;9.50;99.90;;;;;;4977004;28;20104;-89
2023/01/06 01:01:26;;;;;;;20.20;2.88;;;9.60;99.90;;;;;;4994615;28;20045;-90
2023/01/06 01:03:54;;;;;;;14.40;2.92;;;9.50;99.90;;;;;;5008571;28;20057;-89
2023/01/06 01:06:23;;;;;;;19.38;4.25;;;9.50;99.90;;;;;;4989471;28;20381;-88
2023/01/06 01:08:57;;;;;;;12.55;3.10;;;9.60;99.90;;;;;;5003353;28;20046;-89
2023/01/06 01:14:13;;;;;;;16.25;2.60;;;9.60;99.90;;;;;;5006055;28;20045;-88
2023/01/06 01:16:39;;;;;;;14.63;2.97;;;9.50;99.90;;;;;;5009748;28;20061;-89
2023/01/06 01:19:14;;;;;;;16.25;2.80;;;9.50;99.90;;;;;;4994310;28;20050;-88
2023/01/06 01:21:40;;;;;;;16.20;2.72;;;9.60;99.90;;;;;;5011193;28;20049;-88
2023/01/06 01:24:09;;;;;;;11.48;2.80;;;9.50;99.90;;;;;;5009215;28;20049;-89
2023/01/06 01:26:36;;;;;;;10.30;2.30;;;9.60;99.90;;;;;;4991065;28;20064;-89
2023/01/06 01:29:04;;;;;;;11.32;2.30;;;9.60;99.90;;;;;;4991691;28;20401;-88
2023/01/06 01:31:32;;;;;;;13.43;2.63;;;9.70;99.90;;;;;;5011969;28;20054;-90
2023/01/06 01:34:01;;;;;;;12.60;2.40;;;9.60;99.90;;;;;;4995239;28;20052;-89
2023/01/06 01:36:30;;;;;;;16.10;3.70;;;8.20;99.90;;;;;;4980388;28;20041;-87
2023/01/06 01:39:03;;;;;;;15.95;2.90;;;9.60;99.90;;;;;;4995251;28;20068;-89
2023/01/06 01:41:33;;;;;;;10.80;2.17;;;9.60;99.90;;;;;;4979003;28;20077;-88
2023/01/06 01:44:02;;;;;;;11.77;2.05;;;9.60;99.90;;;;;;5010290;28;20099;-88
2023/01/06 01:46:41;;;;;;;10.68;1.90;;;8.50;99.90;;;;;;4992833;28;20057;-90
2023/01/06 01:49:36;;;;;;;12.07;2.28;;;9.70;99.90;;;;;;4992958;28;20076;-89
2023/01/06 01:52:04;;;;;;;10.57;2.40;;;9.60;99.90;;;;;;4991894;28;20342;-88
2023/01/06 01:54:32;;;;;;;9.50;2.20;;;9.60;99.90;;;;;;5009291;28;20076;-88
2023/01/06 01:57:04;;;;;;;15.73;2.65;;;9.60;99.90;;;;;;4995880;28;20103;-91
2023/01/06 01:59:35;;;;;;;10.68;1.98;;;9.60;99.90;;;;;;4992549;28;20493;-90
2023/01/06 02:02:08;;;;;;;10.30;2.22;;;8.60;99.90;;;;;;5012709;28;20053;-88
2023/01/06 02:04:41;;;;;;;14.18;1.75;;;9.60;99.90;;;;;;4963709;28;20042;-89
2023/01/06 02:07:10;;;;;;;11.02;2.08;;;9.60;99.90;;;;;;4994666;28;20084;-87
2023/01/06 02:09:59;;;;;;;9.25;2.05;;;9.60;99.90;;;;;;4997552;28;20081;-89
2023/01/06 02:12:25;;;;;;;7.97;1.80;;;9.60;99.90;;;;;;4994412;28;20055;-90
2023/01/06 02:14:51;;;;;;;11.02;2.20;;;9.60;99.90;;;;;;4986907;28;20045;-87
2023/01/06 02:17:38;;;;;;;8.77;1.83;;;9.50;99.90;;;;;;5017717;28;20049;-88
2023/01/06 02:20:25;;;;;;;14.02;2.42;;;9.60;99.90;;;;;;4993463;28;20077;-89
2023/01/06 02:23:11;;;;;;;7.95;1.60;;;9.50;99.90;;;;;;5014312;28;20561;-89
2023/01/06 02:26:01;;;;;;;9.25;1.35;;;11.00;99.90;;;;;;5014565;28;20072;-89
2023/01/06 02:28:47;;;;;;;12.35;1.83;;;9.60;99.90;;;;;;4998376;28;20041;-88
2023/01/06 02:31:46;;;;;;;8.63;1.92;;;9.70;99.90;;;;;;4974380;28;20053;-90
2023/01/06 02:34:30;;;;;;;11.13;1.60;;;9.60;99.90;;;;;;4995927;28;20041;-88
2023/01/06 02:37:28;;;;;;;9.05;1.40;;;9.60;99.90;;;;;;5016572;28;20060;-90
2023/01/06 02:40:15;;;;;;;9.00;1.58;;;9.60;99.90;;;;;;5014878;28;20037;-89
2023/01/06 02:42:44;;;;;;;10.68;2.05;;;9.80;99.90;;;;;;4997992;28;20050;-89
2023/01/06 02:45:31;;;;;;;8.43;1.75;;;9.60;99.90;;;;;;4989301;28;20046;-87
2023/01/06 02:48:06;;;;;;;9.00;2.17;;;9.60;99.90;;;;;;4996267;28;20041;-89
2023/01/06 02:51:00;;;;;;;11.30;2.55;;;9.50;99.90;;;;;;5011320;28;20610;-87
2023/01/06 02:54:10;;;;;;;6.97;1.90;;;9.60;99.90;;;;;;5009067;28;20857;-90
2023/01/06 02:56:44;;;;;;;5.55;2.30;;;8.90;99.90;;;;;;5006531;28;20558;-89
2023/01/06 02:59:44;;;;;;;9.82;2.95;;;8.70;99.90;;;;;;4997772;28;20049;-89
2023/01/06 03:02:10;;;;;;;9.25;2.45;;;9.60;99.90;;;;;;4973903;28;20054;-87
2023/01/06 03:04:44;;;;;;;7.80;2.20;;;9.70;99.90;;;;;;4995259;28;20060;-88
2023/01/06 03:07:13;;;;;;;5.65;2.20;;;8.50;99.90;;;;;;4992205;28;20392;-88
2023/01/06 03:09:39;;;;;;;7.65;2.10;;;9.70;99.90;;;;;;4995695;28;20053;-89
2023/01/06 03:12:19;;;;;;;9.95;2.60;;;9.50;99.90;;;;;;5010057;28;20052;-88
2023/01/06 03:14:50;;;;;;;5.82;2.00;;;9.60;99.90;;;;;;5013438;28;20049;-87
2023/01/06 03:17:16;;;;;;;7.20;2.13;;;9.60;99.90;;;;;;4993075;28;20053;-87
2023/01/06 03:19:46;;;;;;;3.95;1.73;;;9.60;99.90;;;;;;4996461;28;20045;-87
2023/01/06 03:22:18;;;;;;;7.20;1.98;;;9.60;99.90;;;;;;4975435;28;20050;-88
2023/01/06 03:24:45;;;;;;;5.57;1.83;;;9.60;99.90;;;;;;4990247;28;20046;-86
2023/01/06 03:27:14;;;;;;;4.70;2.03;;;9.60;99.90;;;;;;4987098;28;20060;-88
2023/01/06 03:29:39;;;;;;;6.22;2.50;;;9.60;99.90;;;;;;4998541;28;20054;-86
2023/01/06 03:32:34;;;;;;;6.30;2.38;;;9.60;99.90;;;;;;4990191;28;20107;-87
2023/01/06 03:35:24;;;;;;;6.78;2.45;;;9.60;99.90;;;;;;4994238;28;20502;-88
2023/01/06 03:38:12;;;;;;;6.15;2.50;;;9.60;99.90;;;;;;4996726;28;20045;-89
2023/01/06 03:40:53;;;;;;;11.98;2.90;;;9.70;99.90;;;;;;4996203;28;20053;-88
2023/01/06 03:43:33;;;;;;;7.65;2.97;;;9.70;99.90;;;;;;5009516;28;20053;-87
2023/01/06 03:46:23;;;;;;;5.45;3.20;;;9.50;99.90;;;;;;5011551;28;20087;-87
2023/01/06 03:48:55;;;;;;;7.13;3.58;;;9.50;99.90;;;;;;5007814;28;20100;-87
2023/01/06 03:51:57;;;;;;;8.02;4.38;;;9.50;99.90;;;;;;4991994;28;20055;-88
2023/01/06 03:54:51;;;;;;;8.52;4.45;;;9.60;99.90;;;;;;5016343;28;20054;-88
2023/01/06 03:57:33;;;;;;;7.32;4.78;;;9.60;99.90;;;;;;4989263;28;20050;-88
2023/01/06 04:00:11;;;;;;;12.43;5.05;;;9.50;99.90;;;;;;4992805;28;20119;-88
2023/01/06 04:02:38;;;;;;;10.32;4.95;;;9.60;99.90;;;;;;5009092;28;20045;-87
2023/01/06 04:05:21;;;;;;;9.38;4.72;;;9.60;99.90;;;;;;5011214;28;20049;-90
2023/01/06 04:07:52;;;;;;;9.60;4.72;;;9.50;99.90;;;;;;4991561;28;20069;-87
2023/01/06 04:10:23;;;;;;;9.65;4.57;;;9.60;99.90;;;;;;4994196;28;20085;-87
2023/01/06 04:12:56;;;;;;;7.80;5.07;;;9.50;99.90;;;;;;4987966;28;20046;-89
2023/01/06 04:15:34;;;;;;;7.90;4.57;;;9.60;99.90;;;;;;4995578;28;20049;-87
2023/01/06 04:18:06;;;;;;;5.93;3.97;;;9.90;99.90;;;;;;5011787;28;20049;-89
2023/01/06 04:20:32;;;;;;;8.60;4.65;;;9.60;99.90;;;;;;4997183;28;20283;-90
2023/01/06 04:23:00;;;;;;;6.65;4.05;;;9.60;99.90;;;;;;4990357;28;20053;-86
2023/01/06 04:25:26;;;;;;;6.30;4.60;;;9.50;99.90;;;;;;4993027;28;20050;-89
2023/01/06 04:27:52;;;;;;;8.05;4.10;;;9.10;99.90;;;;;;4992773;28;20062;-89
2023/01/06 04:30:18;;;;;;;5.70;3.45;;;9.00;99.90;;;;;;4993562;28;20408;-88
2023/01/06 04:32:44;;;;;;;6.38;4.05;;;9.60;99.90;;;;;;5009032;28;20053;-87
2023/01/06 04:35:12;;;;;;;7.00;3.55;;;10.40;99.90;;;;;;4993140;28;20508;-88
2023/01/06 04:37:41;;;;;;;6.32;3.40;;;9.50;99.90;;;;;;4994452;28;20050;-89
2023/01/06 04:40:07;;;;;;;5.88;3.30;;;9.50;99.90;;;;;;5011337;28;20468;-88
2023/01/06 04:45:24;;;;;;;6.57;3.20;;;9.50;99.90;;;;;;5012746;28;20045;-88
2023/01/06 04:47:57;;;;;;;3.90;2.95;;;9.50;99.90;;;;;;4995858;28;20050;-87
2023/01/06 04:50:23;;;;;;;6.00;3.00;;;9.60;99.90;;;;;;4973226;28;20046;-89
2023/01/06 04:52:52;;;;;;;8.45;2.67;;;9.50;99.90;;;;;;4992336;28;20950;-88
2023/01/06 04:55:18;;;;;;;5.47;2.80;;;9.50;99.90;;;;;;4994627;28;20049;-89
2023/01/06 04:57:43;;;;;;;5.93;2.80;;;9.50;99.90;;;;;;4993776;28;20056;-88
2023/01/06 05:00:13;;;;;;;4.90;2.97;;;9.60;99.90;;;;;;4974798;28;20045;-87
2023/01/06 05:02:39;;;;;;;6.05;3.03;;;9.00;99.90;;;;;;5009506;28;20049;-88
2023/01/06 05:05:05;;;;;;;5.78;2.67;;;9.60;99.90;;;;;;5000223;28;20502;-88
2023/01/06 05:07:34;;;;;;;5.85;2.63;;;9.70;99.90;;;;;;5004917;28;20060;-89
2023/01/06 05:10:00;;;;;;;6.00;2.35;;;9.60;99.90;;;;;;5031566;28;20053;-89
2023/01/06 05:12:28;;;;;;;9.63;2.92;;;9.60;99.90;;;;;;5010900;28;20132;-88
2023/01/06 05:14:56;;;;;;;4.82;2.50;;;9.60;99.90;;;;;;5012388;28;20052;-87
2023/01/06 05:17:27;;;;;;;4.80;2.63;;;9.70;99.90;;;;;;5006837;28;20045;-88
2023/01/06 05:19:55;;;;;;;6.05;3.30;;;8.50;99.90;;;;;;4997636;28;20080;-87
2023/01/06 05:22:21;;;;;;;5.28;2.60;;;9.60;99.90;;;;;;5022354;28;20049;-88
2023/01/06 05:24:49;;;;;;;6.65;2.83;;;9.50;99.90;;;;;;5011953;28;20050;-89
2023/01/06 05:27:15;;;;;;;4.10;2.38;;;8.60;99.90;;;;;;5024567;28;20060;-88
2023/01/06 05:29:41;;;;;;;7.15;2.80;;;9.50;99.90;;;;;;5013825;28;20065;-89
2023/01/06 05:32:09;;;;;;;7.18;2.95;;;9.20;99.90;;;;;;4996780;28;20047;-88
2023/01/06 05:34:34;;;;;;;7.40;2.50;;;9.70;99.90;;;;;;5009668;28;20041;-88
2023/01/06 05:37:00;;;;;;;6.20;2.47;;;9.50;99.90;;;;;;5006304;28;20045;-88
2023/01/06 05:39:29;;;;;;;5.20;2.33;;;9.50;99.90;;;;;;5014271;28;20077;-87
2023/01/06 05:41:55;;;;;;;7.10;2.30;;;9.50;99.90;;;;;;5011280;28;20111;-88
2023/01/06 05:44:23;;;;;;;5.93;2.35;;;9.60;99.90;;;;;;5006880;28;20048;-90
2023/01/06 05:46:49;;;;;;;7.55;2.72;;;9.50;99.90;;;;;;5003915;28;20046;-87
2023/01/06 05:49:15;;;;;;;6.20;2.20;;;9.60;99.90;;;;;;5015106;28;20038;-86
2023/01/06 05:51:41;;;;;;;10.05;2.17;;;9.70;99.90;;;;;;5003233;28;20057;-89
2023/01/06 05:54:08;;;;;;;8.98;2.45;;;9.70;99.90;;;;;;5021704;28;20080;-87
2023/01/06 05:56:35;;;;;;;6.88;2.42;;;9.70;99.90;;;;;;5019365;28;20276;-87
2023/01/06 05:59:01;;;;;;;6.40;2.30;;;9.80;99.90;;;;;;5023751;28;20052;-89
2023/01/06 06:01:30;;;;;;;5.88;2.30;;;9.70;99.90;;;;;;5020206;28;20052;-87
2023/01/06 06:04:01;;;;;;;4.80;2.42;;;9.80;99.90;;;;;;5023317;28;20050;-87
2023/01/06 06:06:31;;;;;;;9.15;2.75;;;9.70;99.90;;;;;;4983466;28;20042;-86
2023/01/06 06:08:57;;;;;;;11.00;2.53;;;9.70;99.90;;;;;;4999878;28;20120;-87
2023/01/06 06:11:26;;;;;;;6.53;2.20;;;9.70;99.90;;;;;;5017327;28;20068;-87
2023/01/06 06:13:55;;;;;;;10.57;2.75;;;9.60;99.90;;;;;;5020643;28;20041;-85
2023/01/06 06:16:25;;;;;;;8.13;2.28;;;9.80;99.90;;;;;;5016900;28;20060;-89
2023/01/06 06:18:53;;;;;;;10.60;3.40;;;9.60;99.90;;;;;;5007153;28;20045;-88
2023/01/06 06:21:23;;;;;;;7.68;1.88;;;9.80;99.90;;;;;;5006691;28;20148;-90
2023/01/06 06:23:51;;;;;;;11.77;2.78;;;9.80;99.90;;;;;;5023073;28;20705;-87
2023/01/06 06:26:17;;;;;;;11.60;2.70;;;9.70;99.90;;;;;;4989181;28;20061;-86
2023/01/06 06:28:42;;;;;;;10.82;2.30;;;9.10;99.90;;;;;;5026327;28;20091;-88
2023/01/06 06:31:21;;;;;;;15.05;3.22;;;9.70;99.90;;;;;;5006309;28;20049;-88
2023/01/06 06:33:54;;;;;;;9.38;2.83;;;9.70;99.90;;;;;;5007532;28;20046;-88
2023/01/06 06:36:20;;;;;;;12.35;2.45;;;9.80;99.90;;;;;;5029178;28;20043;-89
2023/01/06 06:38:53;;;;;;;19.15;3.38;;;9.60;99.90;;;;;;5031218;28;20045;-87
2023/01/06 06:41:19;;;;;;;12.45;2.30;;;;;;;;;;5017388;28;20052;-85
2023/01/06 06:43:47;;;;;;;11.02;1.80;;;9.40;99.90;;;;;;5015828;28;20053;-88
2023/01/06 06:46:12;;;;;;;10.77;1.75;;;9.20;99.90;;;;;;5027341;28;20046;-88
2023/01/06 06:48:38;;;;;;;10.27;1.90;;;9.10;99.90;;;;;;5003553;28;20049;-88
2023/01/06 06:51:10;;;;;;;16.75;2.28;;;8.90;99.90;;;;;;5012031;28;20037;-89
2023/01/06 06:53:37;;;;;;;10.73;1.80;;;8.80;99.90;;;;;;5006123;28;20044;-82
2023/01/06 06:56:04;;;;;;;10.50;1.98;;;8.60;99.90;;;;;;5006685;28;20446;-87
2023/01/06 06:58:36;;;;;;;12.18;1.90;;;8.50;99.90;;;;;;4976961;28;20056;-90
2023/01/06 07:01:06;;;;;;;13.60;2.20;;;8.40;99.90;;;;;;4996667;28;20050;-88
2023/01/06 07:03:35;;;;;;;13.15;2.15;;;8.50;99.90;;;;;;5011298;28;20050;-88
2023/01/06 07:06:02;;;;;;;17.02;2.13;;;8.30;99.90;;;;;;4999514;28;20065;-87
2023/01/06 07:08:28;;;;;;;11.90;1.90;;;8.30;99.90;;;;;;5010373;28;20064;-89
2023/01/06 07:13:55;;;;;;;14.30;3.00;;;7.20;99.90;;;;;;5014387;28;20046;-89
2023/01/06 07:16:41;;;;;;;17.15;2.70;;;9.30;99.90;;;;;;4993078;28;20054;-90
2023/01/06 07:19:13;;;;;;;11.65;2.30;;;8.10;99.90;;;;;;5007563;28;20042;-93
2023/01/06 07:21:48;;;;;;;13.45;2.30;;;8.00;99.90;;;;;;5012546;28;20172;-90
2023/01/06 07:24:28;;;;;;;14.13;2.40;;;8.00;99.90;;;;;;4995365;28;20047;-92
2023/01/06 07:26:58;;;;;;;15.25;2.33;;;8.00;99.90;;;;;;4982031;28;20169;-91
2023/01/06 07:29:43;;;;;;;;;;;;;;;;;;;;;
2023/01/06 07:32:12;;;;;;;15.00;2.00;;;8.00;99.90;;;;;;5015180;28;20136;-91
2023/01/06 07:34:45;;;;;;;14.05;2.20;;;8.00;99.90;;;;;;5008417;28;20050;-91
2023/01/06 07:37:31;;;;;;;12.15;2.50;;;6.80;99.90;;;;;;4994059;28;20049;-92
2023/01/06 07:40:30;;;;;;;;;;;;;;;;;;;;;
2023/01/06 07:42:57;;;;;;;19.15;3.10;;;8.40;99.90;;;;;;5005094;28;20517;-88
2023/01/06 07:45:22;;;;;;;23.15;2.60;;;7.80;99.90;;;;;;4990811;28;20049;-89
2023/01/06 07:47:56;;;;;;;17.10;2.42;;;7.80;99.90;;;;;;4990444;28;20080;-89
2023/01/06 07:50:22;;;;;;;14.63;2.15;;;7.90;99.90;;;;;;4991534;28;20045;-90
2023/01/06 07:52:47;;;;;;;14.65;2.25;;;7.90;99.90;;;;;;4991597;28;20048;-89
2023/01/06 07:55:13;;;;;;;13.13;2.00;;;7.80;99.90;;;;;;5004877;28;20534;-89
2023/01/06 07:57:45;;;;;;;14.18;2.20;;;7.80;99.90;;;;;;5010636;28;20061;-91
2023/01/06 08:00:14;;;;;;;19.85;2.70;;;7.10;99.90;;;;;;4989780;28;20386;-92
2023/01/06 08:02:42;;;;;;;22.27;3.08;;;7.30;99.90;;;;;;5005506;28;20187;-91
2023/01/06 08:05:22;;;;;;;20.95;2.55;;;6.60;99.90;;;;;;4992875;28;20042;-92
2023/01/06 08:08:08;;;;;;;12.48;2.20;;;6.90;99.90;;;;;;4992802;28;20076;-91
2023/01/06 08:10:53;;;;;;;16.38;2.05;;;7.70;99.90;;;;;;5008678;28;20053;-89
2023/01/06 08:13:22;;;;;;;9.77;1.80;;;7.60;99.90;;;;;;4992306;28;20038;-88
2023/01/06 08:15:52;;;;;;;16.48;2.20;;;7.70;99.90;;;;;;5009721;28;20128;-89
2023/01/06 08:18:23;;;;;;;10.18;2.63;;;7.90;99.90;;;;;;4973472;28;20042;-89
2023/01/06 08:20:49;;;;;;;11.85;1.88;;;7.90;99.90;;;;;;4993281;28;20052;-91
2023/01/06 08:23:15;;;;;;;8.98;1.83;;;7.90;99.90;;;;;;5008440;28;20042;-90
2023/01/06 08:25:41;;;;;;;13.57;2.10;;;7.80;99.90;;;;;;4992927;28;20077;-89
2023/01/06 08:28:12;;;;;;;13.68;1.80;;;7.90;99.90;;;;;;4993433;28;20054;-88
2023/01/06 08:30:41;;;;;;;11.55;2.10;;;7.80;99.90;;;;;;4986270;28;20082;-89
2023/01/06 08:33:12;;;;;;;11.05;2.22;;;8.10;99.90;;;;;;4995879;28;20045;-88
2023/01/06 08:35:42;;;;;;;11.63;1.80;;;7.80;99.90;;;;;;5008777;28;20133;-90
2023/01/06 08:38:08;;;;;;;11.38;1.90;;;7.90;99.90;;;;;;4977022;28;20597;-90
2023/01/06 08:40:37;;;;;;;9.52;2.17;;;8.00;99.90;;;;;;4993896;28;20048;-89
2023/01/06 08:43:02;;;;;;;10.95;1.83;;;8.00;99.90;;;;;;4994307;28;20050;-89
2023/01/06 08:45:28;;;;;;;7.72;1.70;;;8.00;99.90;;;;;;4994660;28;20060;-90
2023/01/06 08:47:54;;;;;;;5.35;1.75;;;8.10;99.90;;;;;;4991045;28;20044;-89
2023/01/06 08:50:22;;;;;;;12.98;1.80;;;8.50;99.90;;;;;;5004560;28;20046;-88
2023/01/06 08:52:53;;;;;;;8.23;1.63;;;9.00;99.90;;;;;;5010070;28;20046;-88
2023/01/06 08:55:21;;;;;;;11.88;2.45;;;10.50;99.90;;;;;;4987436;28;20073;-89
2023/01/06 08:57:47;;;;;;;8.60;1.50;;;9.50;99.90;;;;;;4991785;28;20046;-88
2023/01/06 09:00:17;;;;;;;11.10;1.88;;;9.00;99.90;;;;;;4990130;28;20048;-88
2023/01/06 09:02:43;;;;;;;12.30;2.15;;;10.00;99.90;;;;;;5022595;28;20052;-87
2023/01/06 09:05:11;;;;;;;10.45;1.90;;;9.90;99.90;;;;;;4989040;28;20483;-88
2023/01/06 09:07:37;;;;;;;10.30;1.52;;;9.70;99.90;;;;;;4991766;28;20139;-88
2023/01/06 09:10:04;;;;;;;10.10;2.10;;;9.40;99.90;;;;;;4977549;28;20086;-88
2023/01/06 09:12:32;;;;;;;7.80;1.95;;;9.40;99.90;;;;;;5007255;28;20044;-87
2023/01/06 09:15:03;;;;;;;11.45;1.88;;;9.30;99.90;;;;;;4991928;28;20050;-89
2023/01/06 09:17:42;;;;;;;13.93;2.22;;;8.90;99.90;;;;;;5009210;28;20130;-91
2023/01/06 09:20:10;;;;;;;11.00;1.80;;;8.90;99.90;;;;;;4992470;28;20072;-89
2023/01/06 09:22:39;;;;;;;10.20;2.00;;;8.90;99.90;;;;;;5008543;28;20049;-89
2023/01/06 09:25:41;;;;;;;;;;;;;;;;;;;;;
2023/01/06 09:28:17;;;;;;;;;;;;;;;;;;;;;
2023/01/06 09:30:47;;;;;;;14.05;1.90;;;9.00;99.90;;;;;;5009395;28;20125;-90
2023/01/06 09:33:18;;;;;;;15.98;2.15;;;8.90;99.90;;;;;;4992685;28;20039;-87
2023/01/06 09:35:49;;;;;;;9.18;1.75;;;9.10;99.90;;;;;;4988034;28;20052;-91
2023/01/06 09:38:19;;;;;;;9.32;1.80;;;8.90;99.90;;;;;;4988789;28;20048;-90
2023/01/06 09:41:22;;;;;;;9.20;1.92;;;9.00;99.90;;;;;;4997490;28;20537;-91
2023/01/06 09:44:08;;;;;;;12.00;1.90;;;9.10;99.90;;;;;;4988615;28;20065;-91
2023/01/06 09:46:49;;;;;;;9.50;1.50;;;9.00;99.90;;;;;;5012542;28;20137;-90
2023/01/06 09:49:41;;;;;;;;;;;;;;;;;;;;;
2023/01/06 09:52:33;;;;;;;15.75;1.95;;;8.90;99.90;;;;;;5010334;28;20161;-90
2023/01/06 09:55:07;;;;;;;6.82;1.58;;;9.00;99.90;;;;;;4995768;28;20049;-91
2023/01/06 09:57:54;;;;;;;9.25;1.92;;;8.80;99.90;;;;;;5004188;28;20038;-89
2023/01/06 10:00:33;;;;;;;14.40;2.00;;;9.70;99.90;;;;;;5027385;28;20124;-91
2023/01/06 10:03:00;;;;;;;12.20;2.08;;;9.40;99.90;;;;;;5002706;28;20053;-88
2023/01/06 10:05:59;;;;;;;14.50;2.58;;;9.00;99.90;;;;;;4996539;28;20112;-90
2023/01/06 10:08:31;;;;;;;12.82;2.53;;;9.70;99.90;;;;;;4999178;28;20046;-89
2023/01/06 10:11:30;;;;;;;11.85;1.90;;;9.90;99.90;;;;;;4990777;28;20163;-83
2023/01/06 10:14:09;;;;;;;9.20;1.90;;;10.30;99.90;;;;;;5004839;28;20374;-84
2023/01/06 10:17:06;;;;;;;14.02;2.60;;;10.90;99.90;;;;;;5006091;28;20045;-84
2023/01/06 10:20:07;;;;;;;11.15;2.10;;;10.30;99.90;;;;;;4987161;28;20049;-84
2023/01/06 10:23:19;;;;;;;15.15;2.35;;;11.30;99.90;;;;;;5007904;28;20052;-83
2023/01/06 10:25:54;;;;;;;10.52;2.15;;;11.00;99.90;;;;;;4993678;28;20061;-89
2023/01/06 10:28:43;;;;;;;14.98;2.22;;;11.00;99.90;;;;;;5014594;28;20053;-88
2023/01/06 10:31:39;;;;;;;;;;;;;;;;;;;;;
2023/01/06 10:34:34;;;;;;;19.17;2.58;;;11.10;99.90;;;;;;5008991;28;20042;-90
2023/01/06 10:37:31;;;;;;;13.32;2.00;;;11.80;99.90;;;;;;4989642;28;20064;-92
2023/01/06 10:40:36;;;;;;;12.30;2.53;;;12.60;99.90;;;;;;5002490;28;20640;-88
2023/01/06 10:43:06;;;;;;;12.20;2.20;;;12.10;99.90;;;;;;4971230;28;20061;-89
2023/01/06 10:45:46;;;;;;;11.88;2.55;;;12.30;99.90;;;;;;4999432;28;20049;-88
2023/01/06 10:51:57;;;;;;;;;;;;;;;;;;;;;
2023/01/06 10:55:12;;;;;;;14.30;2.42;;;12.10;99.90;;;;;;4998731;28;20041;-90
2023/01/06 10:58:07;;;;;;;15.18;2.65;;;12.50;99.90;;;;;;5007419;28;20061;-90
2023/01/06 11:01:14;;;;;;;13.50;2.28;;;12.20;99.90;;;;;;4992099;28;20088;-91
2023/01/06 11:04:06;;;;;;;14.57;2.80;;;11.40;99.90;;;;;;4982473;28;20120;-90
2023/01/06 11:07:14;;;;;;;;;;;;;;;;;;;;;
2023/01/06 11:09:54;;;;;;;16.33;2.78;;;10.90;99.90;;;;;;5008616;28;20061;-89
2023/01/06 11:12:31;;;;;;;11.80;2.00;;;10.70;99.90;;;;;;4992811;28;20050;-90
2023/01/06 11:15:27;;;;;;;;;;;;;;;;;;;;;
2023/01/06 11:18:19;;;;;;;16.92;3.15;;;10.40;99.90;;;;;;5015536;28;20136;-89
2023/01/06 11:21:28;;;;;;;23.17;3.35;;;9.50;99.90;;;;;;4988554;28;20056;-89
2023/01/06 11:24:16;;;;;;;13.63;2.50;;;10.20;99.90;;;;;;5006978;28;20050;-91
2023/01/06 11:27:26;;;;;;;;;;;;;;;;;;;;;
2023/01/06 11:30:51;;;;;;;;;;;;;;;;;;;;;
2023/01/06 11:33:31;;;;;;;13.38;2.70;;;9.80;99.90;;;;;;4932591;28;20309;-89
2023/01/06 11:36:13;;;;;;;12.68;2.38;;;9.00;99.90;;;;;;5008722;28;20048;-88
2023/01/06 11:38:56;;;;;;;13.68;2.95;;;9.70;99.90;;;;;;4997081;28;20057;-88
2023/01/06 11:41:47;;;;;;;10.43;2.33;;;9.90;99.90;;;;;;5011503;28;20049;-87
2023/01/06 11:44:41;;;;;;;10.93;2.10;;;9.70;99.90;;;;;;4997413;28;20045;-88
2023/01/06 11:47:31;;;;;;;13.63;2.10;;;9.70;99.90;;;;;;5007344;28;20049;-88
2023/01/06 11:50:03;;;;;;;12.63;2.45;;;9.70;99.90;;;;;;5000454;28;20091;-90
2023/01/06 11:53:02;;;;;;;10.63;2.40;;;11.20;99.90;;;;;;4991021;28;20058;-87
2023/01/06 11:55:31;;;;;;;14.55;2.40;;;9.80;99.90;;;;;;5011188;28;20087;-88
2023/01/06 11:57:59;;;;;;;11.40;2.35;;;9.60;99.90;;;;;;4990583;28;20149;-91
2023/01/06 12:00:51;;;;;;;16.65;2.60;;;9.10;99.90;;;;;;5009927;28;20050;-90
2023/01/06 12:04:03;;;;;;;10.30;2.00;;;9.60;99.90;;;;;;5006357;28;20046;-89
2023/01/06 12:06:57;;;;;;;10.50;2.45;;;9.70;99.90;;;;;;4989412;28;20046;-90
2023/01/06 12:09:44;;;;;;;14.95;2.42;;;9.80;99.90;;;;;;4991092;28;20061;-90
2023/01/06 12:12:24;;;;;;;11.23;2.20;;;9.60;99.90;;;;;;5011538;28;20041;-90
2023/01/06 12:14:50;;;;;;;11.50;2.60;;;9.40;99.90;;;;;;4992986;28;20107;-89
2023/01/06 12:17:49;;;;;;;11.80;2.35;;;9.50;99.90;;;;;;4978060;28;20034;-91
2023/01/06 12:20:40;;;;;;;13.32;2.83;;;8.70;99.90;;;;;;5010258;28;20053;-88
2023/01/06 12:23:35;;;;;;;11.32;2.28;;;9.50;99.90;;;;;;4995402;28;20045;-89
2023/01/06 12:26:07;;;;;;;12.63;2.65;;;9.50;99.90;;;;;;4990855;28;20057;-87
2023/01/06 12:28:44;;;;;;;12.07;2.75;;;9.50;99.90;;;;;;4995796;28;20045;-89
2023/01/06 12:31:21;;;;;;;11.45;2.53;;;9.60;99.90;;;;;;5013556;28;20085;-88
2023/01/06 12:33:59;;;;;;;12.95;2.10;;;9.50;99.90;;;;;;5012179;28;20156;-88
2023/01/06 12:36:38;;;;;;;11.27;2.38;;;9.60;99.90;;;;;;5009672;28;20049;-88
2023/01/06 12:39:40;;;;;;;11.07;2.53;;;10.40;99.90;;;;;;4994556;28;20115;-87
2023/01/06 12:42:55;;;;;;;9.18;2.38;;;9.60;99.90;;;;;;5007148;28;20056;-86
2023/01/06 12:46:06;;;;;;;12.40;2.38;;;9.50;99.90;;;;;;5010678;28;20052;-88
2023/01/06 12:49:01;;;;;;;10.57;2.00;;;9.40;99.90;;;;;;4876554;29;20102;-88
2023/01/06 12:51:43;;;;;;;10.82;2.53;;;8.50;99.90;;;;;;4996559;28;20045;-89
2023/01/06 12:54:28;;;;;;;19.42;2.53;;;9.40;99.90;;;;;;4989976;28;20046;-87
2023/01/06 12:57:14;;;;;;;12.82;2.10;;;9.30;99.90;;;;;;4993964;28;20038;-88
2023/01/06 13:00:20;;;;;;;12.50;2.22;;;9.30;99.90;;;;;;5006883;28;20107;-88
2023/01/06 13:03:20;;;;;;;14.85;2.17;;;9.40;99.90;;;;;;4995555;28;20045;-88
2023/01/06 13:05:52;;;;;;;8.13;1.75;;;9.30;99.90;;;;;;4996358;28;20477;-88
2023/01/06 13:08:36;;;;;;;15.65;2.85;;;9.50;99.90;;;;;;5016465;28;20052;-89
2023/01/06 13:11:30;;;;;;;14.27;2.83;;;9.30;99.90;;;;;;5013667;28;20172;-88
2023/01/06 13:14:23;;;;;;;9.02;2.80;;;9.30;99.90;;;;;;4996504;28;20201;-89
2023/01/06 13:17:26;;;;;;;13.25;2.13;;;9.30;99.90;;;;;;4971700;28;20054;-87
2023/01/06 13:20:09;;;;;;;18.92;2.80;;;9.20;99.90;;;;;;5006373;28;20084;-89
2023/01/06 13:22:49;;;;;;;14.40;2.30;;;9.30;99.90;;;;;;4992628;28;20056;-86
2023/01/06 13:25:24;;;;;;;12.00;2.72;;;9.10;99.90;;;;;;4991779;28;20115;-86
2023/01/06 13:28:28;;;;;;;16.95;2.83;;;8.70;99.90;;;;;;4992513;28;20061;-87
2023/01/06 13:30:56;;;;;;;18.00;2.50;;;9.10;99.90;;;;;;4990707;28;20054;-88
2023/01/06 13:33:41;;;;;;;9.98;2.55;;;9.10;99.90;;;;;;5007471;28;20407;-88
2023/01/06 13:36:48;;;;;;;15.57;2.63;;;9.10;99.90;;;;;;5005332;28;20046;-88
2023/01/06 13:39:36;;;;;;;15.57;2.10;;;9.10;99.90;;;;;;4965740;28;20062;-88
2023/01/06 13:42:06;;;;;;;15.20;2.58;;;9.10;99.90;;;;;;5007496;28;20054;-89
2023/01/06 13:44:36;;;;;;;9.45;2.10;;;10.40;99.90;;;;;;4989064;28;20096;-88
2023/01/06 13:47:11;;;;;;;13.07;2.20;;;9.10;99.90;;;;;;5003982;28;21031;-86
2023/01/06 13:49:46;;;;;;;13.73;2.50;;;9.10;99.90;;;;;;4990309;28;20544;-87
2023/01/06 13:52:29;;;;;;;11.60;2.20;;;9.20;99.90;;;;;;5004737;28;20582;-87
2023/01/06 13:55:05;;;;;;;10.50;2.35;;;9.10;99.90;;;;;;5003963;28;20045;-89
2023/01/06 13:57:37;;;;;;;14.30;2.60;;;8.10;99.90;;;;;;5004626;28;20053;-88
2023/01/06 14:00:09;;;;;;;11.40;2.13;;;9.10;99.90;;;;;;4989846;28;20058;-87
2023/01/06 14:02:38;;;;;;;11.30;2.50;;;9.10;99.90;;;;;;5008950;28;20100;-87
2023/01/06 14:05:24;;;;;;;14.18;2.35;;;9.30;99.90;;;;;;4989712;28;20064;-89
2023/01/06 14:08:01;;;;;;;13.57;2.45;;;9.00;99.90;;;;;;4987022;28;20050;-87